Time;durP1;ratioP1;P1;durP2;ratioP2;P2;SDS_P1;SDS_P2;PMS_P1;PMS_P2;Temp;Humidity;BMP_temperature;BMP_pressure;BME280_temperature;BME280_humidity;BME280_pressure;Samples;Min_cycle;Max_cycle;Signal;HPM_P1;HPM_P2
2022/04/08 04:21:00;;;;;;;0.70;0.70;;;5.50;99.90;;;;;;5111242;22;20623;-69
2022/04/08 04:23:27;;;;;;;0.60;0.60;;;5.50;99.90;;;;;;5032896;28;20212;-70
2022/04/08 04:25:54;;;;;;;0.50;0.50;;;5.50;99.90;;;;;;5033050;28;20308;-70
2022/04/08 04:28:21;;;;;;;0.50;0.50;;;5.60;99.90;;;;;;5033122;28;20197;-70
2022/04/08 04:30:48;;;;;;;0.50;0.50;;;5.60;99.90;;;;;;5032657;28;20307;-71
2022/04/08 04:33:15;;;;;;;0.50;0.50;;;5.60;99.90;;;;;;5033284;28;20232;-70
2022/04/08 04:35:42;;;;;;;0.50;0.50;;;5.60;99.90;;;;;;5033521;28;20284;-70
2022/04/08 04:38:10;;;;;;;0.50;0.50;;;5.60;99.90;;;;;;5033107;28;20201;-71
2022/04/08 04:40:37;;;;;;;0.50;0.50;;;5.60;99.90;;;;;;5033144;28;20317;-69
2022/04/08 04:43:03;;;;;;;0.50;0.50;;;5.60;99.90;;;;;;5033093;28;20293;-69
2022/04/08 04:45:30;;;;;;;0.40;0.40;;;5.60;99.90;;;;;;5032898;28;20312;-69
2022/04/08 04:47:57;;;;;;;0.63;0.63;;;5.60;99.90;;;;;;5033057;28;20201;-69
2022/04/08 04:50:24;;;;;;;0.50;0.50;;;5.60;99.90;;;;;;5033223;28;20413;-69
2022/04/08 04:52:51;;;;;;;0.50;0.50;;;5.60;99.90;;;;;;5032799;28;20213;-70
2022/04/08 04:55:19;;;;;;;0.55;0.55;;;5.60;99.90;;;;;;5033304;28;20293;-70
2022/04/08 04:57:46;;;;;;;0.40;0.40;;;5.60;99.90;;;;;;5033396;28;20197;-70
2022/04/08 05:00:16;;;;;;;0.50;0.50;;;5.70;99.90;;;;;;5033042;28;20316;-70
2022/04/08 05:02:43;;;;;;;0.40;0.40;;;5.70;99.90;;;;;;5032913;28;20208;-70
2022/04/08 05:05:10;;;;;;;0.47;0.47;;;5.70;99.90;;;;;;5032422;28;20228;-70
2022/04/08 05:07:37;;;;;;;0.40;0.40;;;5.70;99.90;;;;;;5032597;28;20221;-68
2022/04/08 05:10:06;;;;;;;0.40;0.40;;;5.70;99.90;;;;;;5033594;28;20225;-69
2022/04/08 05:12:35;;;;;;;0.50;0.50;;;5.70;99.90;;;;;;5036353;28;20202;-69
2022/04/08 05:15:02;;;;;;;0.60;0.60;;;5.70;99.90;;;;;;5036032;28;20607;-69
2022/04/08 05:17:29;;;;;;;0.40;0.40;;;5.70;99.90;;;;;;5036233;28;20569;-69
2022/04/08 05:19:56;;;;;;;0.50;0.50;;;5.70;99.90;;;;;;5035969;28;20778;-67
2022/04/08 05:22:23;;;;;;;0.40;0.40;;;5.70;99.90;;;;;;5035774;28;20299;-68
2022/04/08 05:24:50;;;;;;;0.63;0.63;;;5.70;99.90;;;;;;5035733;28;20583;-70
2022/04/08 05:27:17;;;;;;;0.70;0.60;;;5.80;99.90;;;;;;5035718;28;20201;-70
2022/04/08 05:29:45;;;;;;;0.50;0.50;;;5.70;99.90;;;;;;5036006;28;20227;-70
2022/04/08 05:32:12;;;;;;;0.70;0.70;;;5.70;99.90;;;;;;5035949;28;20259;-70
2022/04/08 05:34:38;;;;;;;0.63;0.63;;;5.80;99.90;;;;;;5036656;28;20288;-70
2022/04/08 05:37:07;;;;;;;0.70;0.70;;;5.80;99.90;;;;;;5036034;28;20301;-70
2022/04/08 05:39:33;;;;;;;0.50;0.50;;;5.80;99.90;;;;;;5035663;28;20228;-70
2022/04/08 05:42:00;;;;;;;0.60;0.60;;;5.90;99.90;;;;;;5035654;28;20735;-70
2022/04/08 05:44:27;;;;;;;0.90;0.90;;;5.90;99.90;;;;;;5035878;28;20205;-70
2022/04/08 05:46:55;;;;;;;0.90;0.90;;;5.90;99.90;;;;;;5035944;28;20292;-69
2022/04/08 05:49:23;;;;;;;0.70;0.70;;;5.90;99.90;;;;;;5036217;28;20775;-69
2022/04/08 05:51:49;;;;;;;0.65;0.65;;;5.90;99.90;;;;;;5036144;28;20288;-69
2022/04/08 05:54:16;;;;;;;0.70;0.70;;;6.00;99.90;;;;;;5035976;28;20205;-69
2022/04/08 05:56:43;;;;;;;0.60;0.60;;;6.00;99.90;;;;;;5035934;28;20313;-69
2022/04/08 05:59:10;;;;;;;0.52;0.52;;;6.10;99.90;;;;;;5035817;28;20323;-69
2022/04/08 06:01:37;;;;;;;0.93;0.93;;;6.10;99.90;;;;;;5035534;28;20292;-69
2022/04/08 06:04:06;;;;;;;0.68;0.68;;;6.10;99.90;;;;;;5035285;28;20590;-69
2022/04/08 06:06:33;;;;;;;0.57;0.57;;;6.20;99.90;;;;;;5035451;28;20225;-69
2022/04/08 06:08:59;;;;;;;0.60;0.60;;;6.20;99.90;;;;;;5035498;28;20305;-69
2022/04/08 06:11:26;;;;;;;0.60;0.60;;;6.20;99.90;;;;;;5035484;28;20554;-69
2022/04/08 06:13:53;;;;;;;0.68;0.68;;;6.30;99.90;;;;;;5035188;28;20564;-69
2022/04/08 06:16:24;;;;;;;0.80;0.80;;;6.40;99.90;;;;;;5034901;28;20284;-70
2022/04/08 06:18:50;;;;;;;0.70;0.70;;;6.40;99.90;;;;;;5034882;28;20212;-70
2022/04/08 06:21:18;;;;;;;0.60;0.60;;;6.50;99.90;;;;;;5034495;28;20300;-70
2022/04/08 06:23:46;;;;;;;0.60;0.60;;;6.60;99.90;;;;;;5035189;28;20197;-71
2022/04/08 06:26:14;;;;;;;0.70;0.70;;;6.60;99.90;;;;;;5034970;28;20275;-69
2022/04/08 06:28:41;;;;;;;0.50;0.50;;;6.70;99.90;;;;;;5035043;28;20603;-69
2022/04/08 06:31:08;;;;;;;0.63;0.63;;;6.70;99.90;;;;;;5034952;28;20312;-69
2022/04/08 06:33:35;;;;;;;0.73;0.73;;;6.80;99.90;;;;;;5034929;28;20207;-69
2022/04/08 06:36:02;;;;;;;0.60;0.60;;;6.80;99.90;;;;;;5034830;28;20288;-69
2022/04/08 10:05:40;;;;;;;0.40;0.40;;;8.90;99.90;;;;;;5288801;22;20328;-70
2022/04/08 10:08:08;;;;;;;0.40;0.40;;;8.90;99.90;;;;;;5035477;28;20558;-69
2022/04/08 10:10:43;;;;;;;0.30;0.30;;;8.90;99.90;;;;;;5035232;28;20679;-69
2022/04/08 10:13:35;;;;;;;0.40;0.40;;;9.00;99.90;;;;;;5036181;28;20189;-69
2022/04/08 10:16:12;;;;;;;0.40;0.40;;;9.00;99.90;;;;;;5040802;28;20217;-69
2022/04/08 10:18:41;;;;;;;0.30;0.30;;;9.00;99.90;;;;;;5040776;28;20189;-68
2022/04/08 10:21:10;;;;;;;0.40;0.40;;;9.00;99.90;;;;;;5040545;28;20209;-68
2022/04/08 10:23:49;;;;;;;0.40;0.40;;;9.10;99.90;;;;;;5040689;28;20205;-68
2022/04/08 10:26:22;;;;;;;0.40;0.40;;;9.10;99.90;;;;;;5040125;28;20205;-68
2022/04/08 10:28:51;;;;;;;0.50;0.50;;;9.20;99.90;;;;;;5039994;28;20201;-68
2022/04/08 10:31:20;;;;;;;0.40;0.40;;;9.40;99.90;;;;;;5040775;28;20197;-68
2022/04/08 10:33:56;;;;;;;0.45;0.45;;;9.50;99.90;;;;;;5042083;28;20201;-68
2022/04/08 10:36:39;;;;;;;0.35;0.35;;;9.60;99.90;;;;;;5039446;28;20245;-68
2022/04/08 10:39:13;;;;;;;0.30;0.30;;;9.70;99.90;;;;;;5039902;28;20193;-68
2022/04/08 10:41:49;;;;;;;0.40;0.40;;;9.70;99.90;;;;;;5039838;28;20205;-69
2022/04/08 10:44:17;;;;;;;0.75;0.40;;;9.80;99.90;;;;;;5040315;28;20260;-70
2022/04/08 10:46:52;;;;;;;0.40;0.40;;;9.70;99.90;;;;;;5040234;28;20221;-69
2022/04/08 10:49:19;;;;;;;0.30;0.30;;;9.70;99.90;;;;;;5039697;28;20204;-69
2022/04/08 10:51:50;;;;;;;0.40;0.40;;;9.70;99.90;;;;;;5035833;28;20210;-68
2022/04/08 10:54:18;;;;;;;0.30;0.30;;;9.70;99.90;;;;;;5034330;28;20606;-71
2022/04/08 10:56:45;;;;;;;0.40;0.40;;;9.70;99.90;;;;;;5034492;28;20654;-71
2022/04/08 10:59:12;;;;;;;0.40;0.40;;;9.70;99.90;;;;;;5034289;28;20296;-70
2022/04/08 11:01:46;;;;;;;0.32;0.32;;;9.80;99.90;;;;;;5034303;28;20732;-71
2022/04/08 11:04:14;;;;;;;0.40;0.40;;;9.80;99.90;;;;;;5034113;28;20230;-70
2022/04/08 11:06:41;;;;;;;0.55;0.55;;;9.80;99.90;;;;;;5034121;28;20221;-71
2022/04/08 11:09:11;;;;;;;0.50;0.50;;;9.90;99.90;;;;;;5033817;28;20205;-71
2022/04/08 11:11:40;;;;;;;0.30;0.30;;;10.00;99.90;;;;;;5034316;28;20296;-71
2022/04/08 11:14:08;;;;;;;0.38;0.38;;;10.10;99.90;;;;;;5034406;28;20224;-70
2022/04/08 11:16:36;;;;;;;0.40;0.40;;;10.20;99.90;;;;;;5034438;28;20198;-70
2022/04/08 11:19:06;;;;;;;0.30;0.30;;;10.20;99.90;;;;;;5034290;28;20208;-71
2022/04/08 11:21:35;;;;;;;0.30;0.30;;;10.20;99.90;;;;;;5034607;28;20248;-70
2022/04/08 11:24:04;;;;;;;0.30;0.30;;;10.20;99.90;;;;;;5034054;28;20202;-70
2022/04/08 11:26:42;;;;;;;0.38;0.38;;;10.20;99.90;;;;;;5034100;28;20256;-71
2022/04/08 11:29:10;;;;;;;0.30;0.30;;;10.20;99.90;;;;;;5034106;28;20189;-71
2022/04/08 11:31:37;;;;;;;0.40;0.40;;;10.20;99.90;;;;;;5033774;28;20209;-71
2022/04/08 11:34:05;;;;;;;0.32;0.32;;;10.30;99.90;;;;;;5033508;28;20548;-70
2022/04/08 11:36:33;;;;;;;0.30;0.30;;;10.30;99.90;;;;;;5033883;28;20564;-71
2022/04/08 11:39:00;;;;;;;0.40;0.40;;;10.30;99.90;;;;;;5034156;28;20307;-70
2022/04/08 11:41:28;;;;;;;0.40;0.40;;;10.40;99.90;;;;;;5033554;28;20288;-69
2022/04/08 11:43:56;;;;;;;0.40;0.40;;;10.40;99.90;;;;;;5033711;28;20209;-69
2022/04/08 11:46:24;;;;;;;0.43;0.43;;;10.40;99.90;;;;;;5033326;28;20228;-69
2022/04/08 11:48:50;;;;;;;0.30;0.30;;;10.40;99.90;;;;;;5033316;28;20236;-69
2022/04/08 11:51:20;;;;;;;0.50;0.50;;;10.40;99.90;;;;;;5033776;28;20276;-70
2022/04/08 11:53:48;;;;;;;0.40;0.40;;;10.50;99.90;;;;;;5033668;28;20197;-69
2022/04/08 11:56:21;;;;;;;0.47;0.47;;;10.50;99.90;;;;;;5033687;28;20284;-70
2022/04/08 11:59:01;;;;;;;0.40;0.40;;;10.50;99.90;;;;;;5033602;28;20221;-71
2022/04/08 12:01:31;;;;;;;0.40;0.40;;;10.50;99.90;;;;;;5034393;28;20277;-69
2022/04/08 12:04:01;;;;;;;0.50;0.50;;;10.50;99.90;;;;;;5034065;28;20196;-70
2022/04/08 12:06:35;;;;;;;0.50;0.50;;;10.50;99.90;;;;;;5035050;28;20236;-69
2022/04/08 12:09:02;;;;;;;0.65;0.50;;;10.40;99.90;;;;;;5033483;28;20189;-70
2022/04/08 12:11:30;;;;;;;0.30;0.30;;;10.40;99.90;;;;;;5033288;28;20292;-70
2022/04/08 12:13:59;;;;;;;0.40;0.40;;;10.40;99.90;;;;;;5033266;28;20276;-70
2022/04/08 12:16:31;;;;;;;0.40;0.40;;;10.40;99.90;;;;;;5033248;28;20207;-70
2022/04/08 12:18:58;;;;;;;0.38;0.38;;;10.30;99.90;;;;;;5034271;28;20185;-71
2022/04/08 12:21:27;;;;;;;0.80;0.50;;;10.30;99.90;;;;;;5037589;28;20209;-71
2022/04/08 12:23:55;;;;;;;0.40;0.40;;;10.20;99.90;;;;;;5037469;28;20203;-71
2022/04/08 12:26:27;;;;;;;0.40;0.40;;;10.20;99.90;;;;;;5037340;28;20316;-71
2022/04/08 12:29:06;;;;;;;0.50;0.50;;;10.20;99.90;;;;;;5037008;28;20187;-71
2022/04/08 12:31:33;;;;;;;0.43;0.43;;;10.20;99.90;;;;;;5037428;28;20194;-70
2022/04/08 12:34:02;;;;;;;0.50;0.50;;;10.10;99.90;;;;;;5036917;28;20207;-70
2022/04/08 12:36:29;;;;;;;0.50;0.50;;;10.10;99.90;;;;;;5036779;28;20575;-71
2022/04/08 12:38:56;;;;;;;0.80;0.80;;;10.20;99.90;;;;;;5037001;28;20197;-70
2022/04/08 12:41:24;;;;;;;0.95;0.95;;;10.20;99.90;;;;;;5036976;28;20201;-70
2022/04/08 12:43:54;;;;;;;0.90;0.90;;;10.30;99.90;;;;;;5037019;28;20185;-70
2022/04/08 12:46:22;;;;;;;0.63;0.63;;;10.40;99.90;;;;;;5036322;28;20617;-70
2022/04/08 12:48:50;;;;;;;0.90;0.90;;;10.50;99.90;;;;;;5036611;28;20205;-70
2022/04/08 12:51:17;;;;;;;0.75;0.75;;;10.50;99.90;;;;;;5036562;28;20193;-71
2022/04/08 12:53:44;;;;;;;0.65;0.65;;;10.60;99.90;;;;;;5036762;28;20198;-72
2022/04/08 12:56:11;;;;;;;0.50;0.50;;;10.70;99.90;;;;;;5036864;28;20185;-72
2022/04/08 12:58:38;;;;;;;0.55;0.55;;;10.70;99.90;;;;;;5036698;28;20296;-72
2022/04/08 13:01:05;;;;;;;0.50;0.50;;;10.70;99.90;;;;;;5036351;28;20684;-72
2022/04/08 13:03:33;;;;;;;0.90;0.60;;;10.90;99.90;;;;;;5036762;28;20205;-72
2022/04/08 13:06:00;;;;;;;0.50;0.50;;;11.00;99.90;;;;;;5036602;28;20239;-72
2022/04/08 13:08:27;;;;;;;0.40;0.40;;;11.00;99.90;;;;;;5036985;28;20686;-72
2022/04/08 13:10:53;;;;;;;0.30;0.30;;;11.10;99.90;;;;;;5036699;28;20292;-72
2022/04/08 13:13:21;;;;;;;0.55;0.55;;;11.10;99.90;;;;;;5036616;28;20289;-72
2022/04/08 13:15:49;;;;;;;0.55;0.55;;;11.10;99.90;;;;;;5036086;28;20708;-72
2022/04/08 13:18:15;;;;;;;0.50;0.50;;;11.00;99.90;;;;;;5036560;28;20275;-72
2022/04/08 13:20:44;;;;;;;0.63;0.50;;;10.90;99.90;;;;;;5036586;28;20292;-72
2022/04/08 13:23:11;;;;;;;0.80;0.60;;;10.70;99.90;;;;;;5036719;28;20197;-72
2022/04/08 13:25:38;;;;;;;1.35;1.35;;;10.60;99.90;;;;;;5036507;28;20221;-72
2022/04/08 13:28:05;;;;;;;2.05;1.65;;;10.50;99.90;;;;;;5036386;28;20221;-71
2022/04/08 13:30:32;;;;;;;1.23;0.90;;;10.40;99.90;;;;;;5035649;28;20291;-71
2022/04/08 13:32:59;;;;;;;0.50;0.50;;;10.30;99.90;;;;;;5035959;28;20197;-71
2022/04/08 13:35:26;;;;;;;0.68;0.68;;;10.20;99.90;;;;;;5036116;28;20308;-72
2022/04/08 13:37:56;;;;;;;0.68;0.68;;;10.00;99.90;;;;;;5040423;28;20292;-72
2022/04/08 13:40:24;;;;;;;0.47;0.47;;;9.80;99.90;;;;;;5040484;28;20190;-72
2022/04/08 13:42:51;;;;;;;0.50;0.50;;;9.70;99.90;;;;;;5040437;28;20711;-71
2022/04/08 13:45:19;;;;;;;0.50;0.50;;;9.60;99.90;;;;;;5040993;28;20229;-72
2022/04/08 13:47:46;;;;;;;0.57;0.57;;;9.50;99.90;;;;;;5040105;28;20232;-72
2022/04/08 13:50:14;;;;;;;0.50;0.50;;;9.40;99.90;;;;;;5040881;28;20212;-72
2022/04/08 13:52:41;;;;;;;0.50;0.50;;;9.30;99.90;;;;;;5040790;28;20205;-71
2022/04/08 13:55:10;;;;;;;0.70;0.70;;;9.10;99.90;;;;;;5040778;28;20226;-71
2022/04/08 13:57:37;;;;;;;0.73;0.68;;;9.00;99.90;;;;;;5035744;28;20259;-71
2022/04/08 14:00:05;;;;;;;0.60;0.60;;;8.90;99.90;;;;;;5035723;28;20207;-71
2022/04/08 14:02:32;;;;;;;0.70;0.70;;;8.80;99.90;;;;;;5035282;28;20288;-71
2022/04/08 14:04:59;;;;;;;0.73;0.60;;;8.90;99.90;;;;;;5035517;28;20228;-71
2022/04/08 14:07:26;;;;;;;0.70;0.70;;;8.90;99.90;;;;;;5035057;28;20316;-71
2022/04/08 14:09:53;;;;;;;0.60;0.60;;;9.00;99.90;;;;;;5035253;28;20198;-71
2022/04/08 14:12:21;;;;;;;0.70;0.70;;;9.00;99.90;;;;;;5035481;28;20212;-71
2022/04/08 14:14:48;;;;;;;1.27;0.95;;;9.10;99.90;;;;;;5035033;28;20236;-71
2022/04/08 14:17:15;;;;;;;0.90;0.70;;;9.10;99.90;;;;;;5035390;28;20197;-71
2022/04/08 14:19:44;;;;;;;0.80;0.80;;;9.10;99.90;;;;;;5035323;28;20205;-71
2022/04/08 14:22:11;;;;;;;0.80;0.80;;;9.20;99.90;;;;;;5035443;28;20213;-71
2022/04/08 14:24:38;;;;;;;1.48;0.70;;;9.30;99.90;;;;;;5035104;28;20227;-71
2022/04/08 14:27:05;;;;;;;0.60;0.60;;;9.40;99.90;;;;;;5034839;28;20767;-71
2022/04/08 14:29:33;;;;;;;0.80;0.80;;;9.60;99.90;;;;;;5034764;28;20668;-71
2022/04/08 14:32:00;;;;;;;0.63;0.63;;;9.80;99.90;;;;;;5034737;28;20735;-71
2022/04/08 14:34:27;;;;;;;0.75;0.75;;;9.80;99.90;;;;;;5034896;28;20315;-71
2022/04/08 14:36:53;;;;;;;0.95;0.75;;;10.10;99.90;;;;;;5035089;28;20229;-71
2022/04/08 14:39:20;;;;;;;0.70;0.70;;;10.10;99.90;;;;;;5036059;28;20292;-70
2022/04/08 14:41:47;;;;;;;0.68;0.68;;;10.10;99.90;;;;;;5049655;28;20228;-69
2022/04/08 14:44:14;;;;;;;0.50;0.50;;;10.20;99.90;;;;;;5036124;28;20304;-70
2022/04/08 14:46:42;;;;;;;1.45;0.60;;;10.30;99.90;;;;;;5034541;28;20700;-70
2022/04/08 14:49:09;;;;;;;1.60;0.70;;;10.30;99.90;;;;;;5034814;28;20240;-70
2022/04/08 14:51:37;;;;;;;0.50;0.50;;;10.30;99.90;;;;;;5035264;28;20201;-70
2022/04/08 14:54:04;;;;;;;1.80;0.70;;;10.20;99.90;;;;;;5036636;28;20189;-70
2022/04/08 14:56:31;;;;;;;0.68;0.68;;;10.10;99.90;;;;;;5037453;28;20307;-69
2022/04/08 14:58:58;;;;;;;0.40;0.40;;;10.20;99.90;;;;;;5038419;28;20192;-70
2022/04/08 15:01:25;;;;;;;0.40;0.40;;;10.10;99.90;;;;;;5037328;28;20247;-70
2022/04/08 15:03:54;;;;;;;0.70;0.70;;;10.10;99.90;;;;;;5034696;28;20205;-70
2022/04/08 15:06:20;;;;;;;0.70;0.70;;;10.20;99.90;;;;;;5033868;28;20586;-70
2022/04/08 15:08:47;;;;;;;0.50;0.50;;;10.30;99.90;;;;;;5034491;28;20292;-70
2022/04/08 15:11:14;;;;;;;0.60;0.60;;;10.60;99.90;;;;;;5034026;28;20297;-70
2022/04/08 15:13:41;;;;;;;0.47;0.47;;;10.70;99.90;;;;;;5034430;28;20319;-70
2022/04/08 15:16:08;;;;;;;0.50;0.50;;;10.70;99.90;;;;;;5033925;28;20767;-69
2022/04/08 15:18:35;;;;;;;0.40;0.40;;;10.80;99.90;;;;;;5034288;28;20199;-70
2022/04/08 15:21:03;;;;;;;0.45;0.45;;;10.80;99.90;;;;;;5033917;28;20201;-70
2022/04/08 15:23:32;;;;;;;0.47;0.47;;;10.80;99.90;;;;;;5033948;28;20211;-71
2022/04/08 15:25:59;;;;;;;0.40;0.40;;;10.80;99.90;;;;;;5033608;28;20278;-71
2022/04/08 15:28:25;;;;;;;0.50;0.50;;;10.90;99.90;;;;;;5033890;28;20314;-71
2022/04/08 15:30:52;;;;;;;0.50;0.50;;;10.90;99.90;;;;;;5034090;28;20232;-69
2022/04/08 15:33:21;;;;;;;0.70;0.70;;;10.90;99.90;;;;;;5033939;28;20621;-69
2022/04/08 15:35:48;;;;;;;1.13;1.13;;;10.70;99.90;;;;;;5034239;28;20274;-69
2022/04/08 15:38:16;;;;;;;1.45;1.38;;;10.70;99.90;;;;;;5033761;28;20204;-69
2022/04/08 15:40:43;;;;;;;0.88;0.88;;;10.70;99.90;;;;;;5033742;28;20207;-69
2022/04/08 15:43:11;;;;;;;1.38;1.10;;;10.60;99.90;;;;;;5033724;28;20207;-68
2022/04/08 15:45:39;;;;;;;1.40;1.40;;;10.60;99.90;;;;;;5033751;28;20217;-68
2022/04/08 15:48:07;;;;;;;2.15;2.05;;;10.50;99.90;;;;;;5033486;28;20212;-68
2022/04/08 15:50:35;;;;;;;1.60;1.30;;;10.50;99.90;;;;;;5033457;28;20607;-69
2022/04/08 15:53:01;;;;;;;3.17;2.75;;;10.40;99.90;;;;;;5033254;28;20197;-68
2022/04/08 15:55:30;;;;;;;2.08;1.73;;;10.40;99.90;;;;;;5032804;28;20308;-69
2022/04/08 15:57:56;;;;;;;2.17;2.00;;;10.40;99.90;;;;;;5033504;28;20198;-69
2022/04/08 16:00:23;;;;;;;1.85;1.75;;;10.40;99.90;;;;;;5033502;28;20288;-68
2022/04/08 16:02:51;;;;;;;1.48;1.48;;;10.40;99.90;;;;;;5033144;28;20669;-68
2022/04/08 16:05:19;;;;;;;1.10;1.10;;;10.50;99.90;;;;;;5033447;28;20217;-69
2022/04/08 16:07:47;;;;;;;1.02;0.93;;;10.50;99.90;;;;;;5033449;28;20292;-69
2022/04/08 16:10:14;;;;;;;0.60;0.60;;;10.60;99.90;;;;;;5033363;28;20205;-69
2022/04/08 16:12:43;;;;;;;0.50;0.50;;;10.70;99.90;;;;;;5033733;28;20277;-69
2022/04/08 16:15:10;;;;;;;0.60;0.60;;;10.70;99.90;;;;;;5033330;28;20218;-70
2022/04/08 16:17:37;;;;;;;0.32;0.32;;;10.70;99.90;;;;;;5033436;28;20545;-70
2022/04/08 16:20:04;;;;;;;0.50;0.50;;;10.70;99.90;;;;;;5032959;28;20296;-70
2022/04/08 16:22:32;;;;;;;0.40;0.40;;;10.70;99.90;;;;;;5033372;28;20201;-71
2022/04/08 16:24:59;;;;;;;0.77;0.77;;;10.80;99.90;;;;;;5033391;28;20225;-70
2022/04/08 16:27:26;;;;;;;0.50;0.50;;;10.80;99.90;;;;;;5033288;28;20221;-70
2022/04/08 16:29:55;;;;;;;0.52;0.52;;;10.80;99.90;;;;;;5033353;28;20228;-70
2022/04/08 16:32:22;;;;;;;0.40;0.40;;;10.80;99.90;;;;;;5032897;28;20665;-70
2022/04/08 16:34:51;;;;;;;0.52;0.52;;;10.70;99.90;;;;;;5032851;28;20636;-70
2022/04/08 16:37:18;;;;;;;0.43;0.43;;;10.70;99.90;;;;;;5034996;28;20205;-70
2022/04/08 16:39:45;;;;;;;0.50;0.50;;;10.70;99.90;;;;;;5034515;28;20265;-70
2022/04/08 16:42:11;;;;;;;0.60;0.60;;;10.60;99.90;;;;;;5033352;28;20317;-69
2022/04/08 16:44:38;;;;;;;0.50;0.50;;;10.60;99.90;;;;;;5032882;28;20316;-69
2022/04/08 16:47:07;;;;;;;0.40;0.40;;;10.60;99.90;;;;;;5032389;28;20559;-69
2022/04/08 16:49:34;;;;;;;0.50;0.50;;;10.60;99.90;;;;;;5032957;28;20209;-69
2022/04/08 16:52:01;;;;;;;0.40;0.40;;;10.60;99.90;;;;;;5033193;28;20237;-70
2022/04/08 16:54:30;;;;;;;0.60;0.60;;;10.60;99.90;;;;;;5033429;28;20225;-68
2022/04/08 16:56:58;;;;;;;0.52;0.52;;;10.50;99.90;;;;;;5035163;28;20648;-68
2022/04/08 16:59:25;;;;;;;0.52;0.52;;;10.50;99.90;;;;;;5036208;28;20197;-68
2022/04/08 17:01:52;;;;;;;0.50;0.50;;;10.40;99.90;;;;;;5036708;28;20208;-68
2022/04/08 17:04:21;;;;;;;0.45;0.45;;;10.30;99.90;;;;;;5038098;28;20252;-68
2022/04/08 17:06:49;;;;;;;0.57;0.57;;;10.40;99.90;;;;;;5038972;28;20213;-68
2022/04/08 17:09:17;;;;;;;0.50;0.50;;;10.40;99.90;;;;;;5041384;28;20552;-69
2022/04/08 17:11:44;;;;;;;0.50;0.50;;;10.40;99.90;;;;;;5041134;28;20198;-69
2022/04/08 17:14:12;;;;;;;0.40;0.40;;;10.30;99.90;;;;;;5041320;28;20265;-69
2022/04/08 17:16:39;;;;;;;0.60;0.60;;;10.30;99.90;;;;;;5039305;28;20641;-69
2022/04/08 17:19:06;;;;;;;0.55;0.55;;;10.30;99.90;;;;;;5041402;28;20700;-69
2022/04/08 17:21:35;;;;;;;0.50;0.50;;;10.10;99.90;;;;;;5041232;28;20189;-69
2022/04/08 17:24:02;;;;;;;0.40;0.40;;;10.00;99.90;;;;;;5042479;28;20201;-69
2022/04/08 17:26:29;;;;;;;0.57;0.57;;;9.80;99.90;;;;;;5038425;28;20205;-69
2022/04/08 17:28:56;;;;;;;1.10;0.60;;;9.70;99.90;;;;;;5036327;28;20272;-69
2022/04/08 17:31:24;;;;;;;1.17;0.75;;;9.60;99.90;;;;;;5035994;28;20661;-69
2022/04/08 17:33:51;;;;;;;0.63;0.63;;;9.50;99.90;;;;;;5036042;28;20231;-69
2022/04/08 17:36:18;;;;;;;1.02;0.68;;;9.30;99.90;;;;;;5035775;28;20650;-68
2022/04/08 17:38:46;;;;;;;0.50;0.50;;;9.20;99.90;;;;;;5035907;28;20699;-68
2022/04/08 17:41:13;;;;;;;0.57;0.57;;;9.00;99.90;;;;;;5036078;28;20250;-69
2022/04/08 17:43:40;;;;;;;0.60;0.60;;;8.90;99.90;;;;;;5035850;28;20570;-68
2022/04/08 17:46:08;;;;;;;0.60;0.60;;;8.70;99.90;;;;;;5036372;28;20221;-69
2022/04/08 17:48:35;;;;;;;0.70;0.70;;;8.60;99.90;;;;;;5036773;28;20244;-68
2022/04/08 17:51:02;;;;;;;0.90;0.68;;;8.50;99.90;;;;;;5036054;28;20300;-68
2022/04/08 17:53:31;;;;;;;1.00;1.00;;;8.50;99.90;;;;;;5036056;28;20211;-68
2022/04/08 17:56:02;;;;;;;1.00;1.00;;;8.40;99.90;;;;;;5035596;28;20232;-68
2022/04/08 17:58:30;;;;;;;1.00;1.00;;;8.30;99.90;;;;;;5035947;28;20186;-68
2022/04/08 18:00:57;;;;;;;0.85;0.85;;;8.20;99.90;;;;;;5035843;28;20292;-68
2022/04/08 18:03:23;;;;;;;0.77;0.77;;;8.20;99.90;;;;;;5035554;28;20567;-69
2022/04/08 18:05:50;;;;;;;0.70;0.70;;;8.10;99.90;;;;;;5035174;28;20320;-68
2022/04/08 18:08:17;;;;;;;0.73;0.73;;;8.20;99.90;;;;;;5035450;28;20716;-68
2022/04/08 18:10:46;;;;;;;0.68;0.68;;;8.20;99.90;;;;;;5035564;28;20586;-68
2022/04/08 18:13:14;;;;;;;0.80;0.80;;;8.20;99.90;;;;;;5035715;28;20242;-69
2022/04/08 18:15:41;;;;;;;0.55;0.55;;;8.30;99.90;;;;;;5035294;28;20252;-68
2022/04/08 18:18:08;;;;;;;0.65;0.65;;;8.40;99.90;;;;;;5035303;28;20193;-69
2022/04/08 18:20:36;;;;;;;0.80;0.80;;;8.40;99.90;;;;;;5035489;28;20607;-68
2022/04/08 18:23:03;;;;;;;1.40;0.75;;;8.50;99.90;;;;;;5035410;28;20205;-69
2022/04/08 18:25:30;;;;;;;0.90;0.90;;;8.50;99.90;;;;;;5035363;28;20255;-68
2022/04/08 18:27:57;;;;;;;0.63;0.63;;;8.50;99.90;;;;;;5035374;28;20224;-68
2022/04/08 18:30:25;;;;;;;0.98;0.98;;;8.50;99.90;;;;;;5035297;28;20208;-68
2022/04/08 18:32:53;;;;;;;0.93;0.90;;;8.60;99.90;;;;;;5034940;28;20698;-68
2022/04/08 18:35:20;;;;;;;0.70;0.70;;;8.60;99.90;;;;;;5034986;28;20228;-69
2022/04/08 18:37:47;;;;;;;1.23;0.90;;;8.60;99.90;;;;;;5035144;28;20200;-68
2022/04/08 18:40:14;;;;;;;0.95;0.95;;;8.70;99.90;;;;;;5035050;28;20296;-69
2022/04/08 18:42:41;;;;;;;1.35;1.25;;;8.60;99.90;;;;;;5034931;28;20227;-69
2022/04/08 18:45:08;;;;;;;1.10;1.10;;;8.70;99.90;;;;;;5034723;28;20228;-72
2022/04/08 18:47:37;;;;;;;1.08;1.08;;;8.70;99.90;;;;;;5034801;28;20289;-70
2022/04/08 18:50:04;;;;;;;1.00;1.00;;;8.70;99.90;;;;;;5034911;28;20293;-70
2022/04/08 18:52:31;;;;;;;0.80;0.80;;;8.70;99.90;;;;;;5035052;28;20288;-69
2022/04/08 18:54:59;;;;;;;0.90;0.90;;;8.60;99.90;;;;;;5034548;28;20221;-70
2022/04/08 18:57:25;;;;;;;0.90;0.90;;;8.70;99.90;;;;;;5034445;28;20592;-69
2022/04/08 18:59:52;;;;;;;1.00;1.00;;;8.60;99.90;;;;;;5034330;28;20209;-68
2022/04/08 19:02:21;;;;;;;0.95;0.95;;;8.60;99.90;;;;;;5034721;28;20279;-69
2022/04/08 19:04:49;;;;;;;0.75;0.75;;;8.60;99.90;;;;;;5034529;28;20692;-69
2022/04/08 19:07:16;;;;;;;1.00;1.00;;;8.60;99.90;;;;;;5034413;28;20606;-69
2022/04/08 19:09:43;;;;;;;1.17;1.05;;;8.60;99.90;;;;;;5034573;28;20315;-68
2022/04/08 19:12:12;;;;;;;0.70;0.70;;;8.60;99.90;;;;;;5034567;28;20227;-67
2022/04/08 19:14:39;;;;;;;0.60;0.60;;;8.70;99.90;;;;;;5034498;28;20329;-67
2022/04/08 19:17:06;;;;;;;0.70;0.70;;;8.40;99.90;;;;;;5034403;28;20197;-67
2022/04/08 19:19:33;;;;;;;0.90;0.90;;;8.70;99.90;;;;;;5034463;28;20292;-67
2022/04/08 19:22:01;;;;;;;0.90;0.90;;;8.70;99.90;;;;;;5034600;28;20211;-67
2022/04/08 19:24:28;;;;;;;0.65;0.65;;;8.70;99.90;;;;;;5034379;28;20275;-67
2022/04/08 19:26:55;;;;;;;0.75;0.75;;;8.70;99.90;;;;;;5033920;28;20660;-67
2022/04/08 19:29:23;;;;;;;0.60;0.60;;;8.70;99.90;;;;;;5033431;28;20213;-67
2022/04/08 19:31:50;;;;;;;0.60;0.60;;;8.50;99.90;;;;;;5034299;28;20236;-67
2022/04/08 19:34:17;;;;;;;0.77;0.77;;;8.70;99.90;;;;;;5033948;28;20217;-68
2022/04/08 19:36:44;;;;;;;0.85;0.85;;;8.70;99.90;;;;;;5033939;28;20292;-67
2022/04/08 19:39:12;;;;;;;0.68;0.68;;;8.70;99.90;;;;;;5033633;28;20676;-67
2022/04/08 19:41:39;;;;;;;0.60;0.60;;;8.80;99.90;;;;;;5033934;28;20205;-67
2022/04/08 19:44:07;;;;;;;0.80;0.80;;;8.70;99.90;;;;;;5034207;28;20205;-67
2022/04/08 19:46:34;;;;;;;0.82;0.82;;;8.70;99.90;;;;;;5034055;28;20740;-68
2022/04/08 19:49:02;;;;;;;0.80;0.77;;;8.80;99.90;;;;;;5033944;28;20312;-67
2022/04/08 19:51:29;;;;;;;0.80;0.80;;;8.70;99.90;;;;;;5034075;28;20205;-67
2022/04/08 19:53:56;;;;;;;0.88;0.88;;;8.70;99.90;;;;;;5033964;28;20227;-68
2022/04/08 19:56:25;;;;;;;0.90;0.90;;;8.60;99.90;;;;;;5033976;28;20232;-69
2022/04/08 19:58:51;;;;;;;0.80;0.80;;;8.50;99.90;;;;;;5058091;22;20320;-68
2022/04/08 20:01:18;;;;;;;0.80;0.80;;;8.40;99.90;;;;;;5034188;28;20201;-67
2022/04/08 20:03:45;;;;;;;0.98;0.80;;;8.30;99.90;;;;;;5033978;28;20311;-68
2022/04/08 20:06:12;;;;;;;0.80;0.80;;;8.20;99.90;;;;;;5034568;28;20205;-68
2022/04/08 20:08:39;;;;;;;1.10;1.10;;;8.10;99.90;;;;;;5033719;28;20225;-69
2022/04/08 20:11:06;;;;;;;0.85;0.85;;;8.00;99.90;;;;;;5034418;28;20201;-68
2022/04/08 20:13:34;;;;;;;0.90;0.90;;;7.90;99.90;;;;;;5033659;28;20371;-68
2022/04/08 20:16:02;;;;;;;1.73;0.80;;;7.90;99.90;;;;;;5033925;28;20225;-68
2022/04/08 20:18:29;;;;;;;0.80;0.80;;;7.90;99.90;;;;;;5033729;28;20572;-69
2022/04/08 20:20:56;;;;;;;0.80;0.80;;;7.90;99.90;;;;;;5033710;28;20243;-69
2022/04/08 20:23:23;;;;;;;0.63;0.63;;;7.90;99.90;;;;;;5034202;28;20201;-69
2022/04/08 20:25:50;;;;;;;0.60;0.60;;;8.00;99.90;;;;;;5034556;28;20252;-67
2022/04/08 20:28:17;;;;;;;0.65;0.65;;;8.00;99.90;;;;;;5033366;28;20228;-68
2022/04/08 20:30:46;;;;;;;0.70;0.70;;;8.00;99.90;;;;;;5033697;28;20239;-68
2022/04/08 20:33:14;;;;;;;0.80;0.80;;;8.10;99.90;;;;;;5034229;28;20304;-69
2022/04/08 20:35:41;;;;;;;2.47;0.73;;;8.10;99.90;;;;;;5034175;28;20198;-69
2022/04/08 20:38:07;;;;;;;0.85;0.85;;;8.10;99.90;;;;;;5033568;28;20650;-69
2022/04/08 20:40:34;;;;;;;0.80;0.80;;;8.10;99.90;;;;;;5035708;28;20303;-71
2022/04/08 20:43:01;;;;;;;0.70;0.70;;;8.10;99.90;;;;;;5037667;28;20205;-71